Flight Track Log - Related Links

Times and Time Zones

All times are in EDT time to prevent confusion due to time zone crossing. See the AAL1862 flight status page for this flight to view local times or setup timezone preferences in your user account.

Time Position Orientation Groundspeed Altitude Reporting Facility
EDT Latitude Longitude Course Direction KTS MPH feet Rate Location/Type
Thu 07:34:35 AM 32.8833 -97.0333 North 169 194 1,500  Level Dallas / Fort Worth TRACON
Thu 07:35:47 AM 32.8167 -97.0000 157° South 236 272 4,200 2,696 Climbing Dallas / Fort Worth TRACON
Thu 07:36:00 AM 32.7564 -96.8680 77° East  Level FlightAware Approximate
Thu 07:36:53 AM 32.7667 -96.9333 132° Southeast 263 303 7,700  Level Dallas / Fort Worth TRACON
Thu 07:37:00 AM 32.8344 -96.8031 10° North  Level FlightAware Approximate
Thu 07:38:00 AM 32.9472 -96.8000 North  Level FlightAware Approximate
Thu 07:39:00 AM 33.0602 -96.8000 North  Level FlightAware Approximate
Thu 07:39:07 AM 32.8694 -96.8172 43° Northeast 276 318 11,600  Level Fort Worth Center
Thu 07:40:07 AM 32.9781 -96.8142 North 323 372 13,600 2,281 Climbing Fort Worth Center
Thu 07:41:08 AM 33.0825 -96.8158 359° North 355 409 16,200 2,700 Climbing Fort Worth Center
Thu 07:42:07 AM 33.1911 -96.8178 359° North 387 445 19,000 2,420 Climbing Fort Worth Center
Thu 07:43:07 AM 33.3058 -96.8219 358° North 393 452 21,000 2,200 Climbing Fort Worth Center
Thu 07:44:07 AM 33.4228 -96.8236 359° North 414 476 23,400 2,000 Climbing Fort Worth Center
Thu 07:45:07 AM 33.5206 -96.7806 20° North 414 476 25,000 800 Climbing Fort Worth Center
Thu 07:46:07 AM 33.6289 -96.7125 28° Northeast 414 476 25,000 100 Level Fort Worth Center
Thu 07:47:07 AM 33.7369 -96.6417 29° Northeast 428 493 25,200 1,000 Climbing Fort Worth Center
Thu 07:48:07 AM 33.8428 -96.5708 29° Northeast 428 493 27,000 1,900 Climbing Fort Worth Center
Thu 07:49:07 AM 33.9550 -96.5044 26° Northeast 433 498 29,000 1,900 Climbing Fort Worth Center
Thu 07:50:07 AM 34.0569 -96.4333 30° Northeast 433 498 30,800 1,750 Climbing Fort Worth Center
Thu 07:51:07 AM 34.1503 -96.3569 34° Northeast 414 476 32,500 1,300 Climbing Fort Worth Center
Thu 07:52:07 AM 34.2497 -96.2753 34° Northeast 414 476 33,400 900 Climbing Fort Worth Center
Thu 07:53:07 AM 34.3469 -96.1961 34° Northeast 414 476 34,300 893 Climbing Fort Worth Center
Thu 07:54:08 AM 34.4442 -96.1142 35° Northeast 419 482 35,200 900 Climbing Fort Worth Center
Thu 07:55:07 AM 34.5394 -96.0394 33° Northeast 419 482 36,100 857 Climbing Fort Worth Center
Thu 07:56:07 AM 34.6364 -95.9597 34° Northeast 419 482 36,900 450 Climbing Fort Worth Center
Thu 07:57:07 AM 34.7294 -95.8800 35° Northeast 419 482 37,000 50 Climbing Fort Worth Center
Thu 07:58:07 AM 34.8222 -95.8025 34° Northeast 419 482 37,000  Level Fort Worth Center
Thu 07:59:07 AM 34.9256 -95.7117 36° Northeast 419 482 37,000  Level Fort Worth Center
Thu 08:00:38 AM 35.0517 -95.5975 37° Northeast 409 471 37,000  Level Memphis Center
Thu 08:01:36 AM 35.1356 -95.5128 40° Northeast 403 464 37,000  Level Kansas City Center
Thu 08:02:37 AM 35.2244 -95.4286 38° Northeast 404 465 37,000  Level Kansas City Center
Thu 08:03:38 AM 35.3125 -95.3444 38° Northeast 403 464 37,000  Level Kansas City Center
Thu 08:04:38 AM 35.4056 -95.2581 37° Northeast 403 464 37,000  Level Memphis Center
Thu 08:05:38 AM 35.4942 -95.1739 38° Northeast 403 464 37,000  Level Memphis Center
Thu 08:06:38 AM 35.5831 -95.0897 38° Northeast 398 458 37,000  Level Memphis Center
Thu 08:07:38 AM 35.6717 -95.0056 38° Northeast 398 458 37,000  Level Memphis Center
Thu 08:08:38 AM 35.7583 -94.9183 39° Northeast 403 464 37,000  Level Memphis Center
Thu 08:09:38 AM 35.8469 -94.8308 39° Northeast 403 464 37,000  Level Memphis Center
Thu 08:10:38 AM 35.9356 -94.7461 38° Northeast 403 464 37,000  Level Memphis Center
Thu 08:11:38 AM 36.0261 -94.6583 38° Northeast 403 464 37,000  Level Memphis Center
Thu 08:12:38 AM 36.1144 -94.5731 38° Northeast 403 464 37,000  Level Memphis Center
Thu 08:13:52 AM 36.2350 -94.4558 38° Northeast 408 470 37,000  Level Kansas City Center
Thu 08:14:54 AM 36.3236 -94.3692 38° Northeast 408 470 37,000  Level Kansas City Center
Thu 08:15:55 AM 36.4119 -94.2819 38° Northeast 407 468 37,000  Level Kansas City Center
Thu 08:16:57 AM 36.5003 -94.1956 38° Northeast 405 466 37,000  Level Kansas City Center
Thu 08:17:58 AM 36.5878 -94.1075 39° Northeast 405 466 37,000  Level Kansas City Center
Thu 08:19:00 AM 36.6775 -94.0183 39° Northeast 410 472 37,000  Level Kansas City Center
Thu 08:20:01 AM 36.7664 -93.9306 38° Northeast 409 471 37,000  Level Kansas City Center
Thu 08:21:03 AM 36.8556 -93.8425 38° Northeast 409 471 37,000  Level Kansas City Center
Thu 08:22:04 AM 36.9583 -93.7358 40° Northeast 405 466 37,000  Level Kansas City Center
Thu 08:23:05 AM 37.0478 -93.6475 38° Northeast 407 468 37,000  Level Kansas City Center
Thu 08:24:07 AM 37.1369 -93.5586 38° Northeast 408 470 37,000  Level Kansas City Center
Thu 08:25:08 AM 37.2253 -93.4692 39° Northeast 407 468 37,000  Level Kansas City Center
Thu 08:26:10 AM 37.3147 -93.3800 38° Northeast 409 471 37,000  Level Kansas City Center
Thu 08:27:11 AM 37.4019 -93.2869 40° Northeast 409 471 37,000 -146 Level Kansas City Center
Thu 08:28:13 AM 37.4858 -93.1858 44° Northeast 412 474 36,700 -634 Descending Kansas City Center
Thu 08:29:14 AM 37.5703 -93.0867 43° Northeast 413 475 35,700 -976 Descending Kansas City Center
Thu 08:30:16 AM 37.6578 -92.9867 42° Northeast 420 483 34,700 -1,073 Descending Kansas City Center
Thu 08:31:17 AM 37.7608 -92.8619 44° Northeast 425 489 33,500 -1,073 Descending Kansas City Center
Thu 08:32:19 AM 37.8481 -92.7583 43° Northeast 427 491 32,500 -1,220 Descending Kansas City Center
Thu 08:33:20 AM 37.9311 -92.6597 43° Northeast 430 495 31,000 -1,268 Descending Kansas City Center
Thu 08:34:22 AM 37.9967 -92.5208 59° Northeast 458 527 29,900 -1,065 Descending Kansas City Center
Thu 08:35:24 AM 38.0717 -92.3944 53° Northeast 463 533 28,800 -1,268 Descending Kansas City Center
Thu 08:36:25 AM 38.1403 -92.2594 57° Northeast 459 528 27,300 -1,317 Descending Kansas City Center
Thu 08:37:27 AM 38.2181 -92.1111 56° Northeast 447 514 26,100 -1,122 Descending Kansas City Center
Thu 08:38:28 AM 38.2850 -91.9836 56° Northeast 436 502 25,000 -1,024 Descending Kansas City Center
Thu 08:39:30 AM 38.3525 -91.8578 56° Northeast 430 495 24,000 -1,024 Descending Kansas City Center
Thu 08:40:31 AM 38.4178 -91.7336 56° Northeast 425 489 22,900 -1,073 Descending Kansas City Center
Thu 08:41:33 AM 38.4825 -91.6114 56° Northeast 418 481 21,800 -1,403 Descending Kansas City Center
Thu 08:42:35 AM 38.5453 -91.4894 57° Northeast 413 475 20,000 -1,902 Descending Kansas City Center
Thu 08:43:36 AM 38.6056 -91.3758 56° Northeast 394 453 17,900 -2,146 Descending Kansas City Center
Thu 08:44:38 AM 38.6636 -91.2633 57° Northeast 372 428 15,600 -1,355 Descending Kansas City Center
Thu 08:45:40 AM 38.6931 -91.1450 72° East 363 418 15,100 -532 Descending Kansas City Center
Thu 08:46:42 AM 38.6942 -90.9842 89° East 376 433 14,500 -1,268 Descending Kansas City Center
Thu 08:47:43 AM 38.7000 -90.8586 87° East 362 417 12,500 -1,805 Descending Kansas City Center
Thu 08:48:45 AM 38.7056 -90.7369 87° East 347 399 10,800 -1,452 Descending Kansas City Center
Thu 08:49:47 AM 38.7106 -90.6256 87° East 324 373 9,500 -1,317 Descending Kansas City Center
Thu 08:50:48 AM 38.7144 -90.5178 87° East 313 360 8,100 -1,073 Descending Kansas City Center
Thu 08:51:50 AM 38.6717 -90.4300 122° Southeast 309 356 7,300 -1,161 Descending Kansas City Center
Thu 08:52:52 AM 38.6122 -90.3208 125° Southeast 306 352 5,700 -1,210 Descending Kansas City Center
Thu 08:53:54 AM 38.5892 -90.2364 109° East 286 329 4,800 -780 Descending Kansas City Center
Thu 08:54:55 AM 38.6150 -90.1600 67° East 268 308 4,100 -689 Descending Kansas City Center

Login

Don't have an account? Register now (free) for customized features, flight alerts, and more!